sensor_id;sensor_type;location;lat;lon;timestamp;temperature;humidity
16503;DHT22;53067;48.114;11.694;2022-07-23T00:00:54;25.90;52.10
16503;DHT22;53067;48.114;11.694;2022-07-23T00:03:22;25.80;52.20
16503;DHT22;53067;48.114;11.694;2022-07-23T00:05:49;25.90;51.60
16503;DHT22;53067;48.114;11.694;2022-07-23T00:08:17;25.90;51.50
16503;DHT22;53067;48.114;11.694;2022-07-23T00:10:45;25.90;51.40
16503;DHT22;53067;48.114;11.694;2022-07-23T00:13:12;25.90;51.20
16503;DHT22;53067;48.114;11.694;2022-07-23T00:15:40;25.90;50.90
16503;DHT22;53067;48.114;11.694;2022-07-23T00:18:07;25.90;50.80
16503;DHT22;53067;48.114;11.694;2022-07-23T00:20:35;25.90;51.00
16503;DHT22;53067;48.114;11.694;2022-07-23T00:23:02;25.90;50.90
16503;DHT22;53067;48.114;11.694;2022-07-23T00:25:30;25.90;50.90
16503;DHT22;53067;48.114;11.694;2022-07-23T00:27:58;25.90;51.00
16503;DHT22;53067;48.114;11.694;2022-07-23T00:30:27;25.90;51.50
16503;DHT22;53067;48.114;11.694;2022-07-23T00:33:17;25.90;51.10
16503;DHT22;53067;48.114;11.694;2022-07-23T00:35:45;25.80;51.20
16503;DHT22;53067;48.114;11.694;2022-07-23T00:38:12;25.80;51.40
16503;DHT22;53067;48.114;11.694;2022-07-23T00:40:40;25.70;51.20
16503;DHT22;53067;48.114;11.694;2022-07-23T00:43:07;25.70;51.20
16503;DHT22;53067;48.114;11.694;2022-07-23T00:45:35;25.70;51.20
16503;DHT22;53067;48.114;11.694;2022-07-23T00:48:03;25.60;51.50
16503;DHT22;53067;48.114;11.694;2022-07-23T00:50:31;25.60;50.90
16503;DHT22;53067;48.114;11.694;2022-07-23T00:52:59;25.60;50.70
16503;DHT22;53067;48.114;11.694;2022-07-23T00:55:27;25.60;50.70
16503;DHT22;53067;48.114;11.694;2022-07-23T00:57:55;25.60;50.70
16503;DHT22;53067;48.114;11.694;2022-07-23T01:00:23;25.60;50.80
16503;DHT22;53067;48.114;11.694;2022-07-23T01:02:50;25.50;50.90
16503;DHT22;53067;48.114;11.694;2022-07-23T01:05:18;25.50;51.00
16503;DHT22;53067;48.114;11.694;2022-07-23T01:07:49;25.50;51.10
16503;DHT22;53067;48.114;11.694;2022-07-23T01:10:17;25.40;51.30
16503;DHT22;53067;48.114;11.694;2022-07-23T01:13:08;25.30;51.50
16503;DHT22;53067;48.114;11.694;2022-07-23T01:15:37;25.20;51.80
16503;DHT22;53067;48.114;11.694;2022-07-23T01:18:06;25.10;52.20
16503;DHT22;53067;48.114;11.694;2022-07-23T01:20:34;25.10;52.80
16503;DHT22;53067;48.114;11.694;2022-07-23T01:23:02;25.00;53.20
16503;DHT22;53067;48.114;11.694;2022-07-23T01:25:30;25.00;53.50
16503;DHT22;53067;48.114;11.694;2022-07-23T01:27:57;25.00;53.50
16503;DHT22;53067;48.114;11.694;2022-07-23T01:30:25;25.00;53.50
16503;DHT22;53067;48.114;11.694;2022-07-23T01:32:53;24.90;53.10
16503;DHT22;53067;48.114;11.694;2022-07-23T01:35:20;25.00;51.50
16503;DHT22;53067;48.114;11.694;2022-07-23T01:37:48;25.00;50.00
16503;DHT22;53067;48.114;11.694;2022-07-23T01:40:15;24.90;50.10
16503;DHT22;53067;48.114;11.694;2022-07-23T01:42:43;24.80;50.20
16503;DHT22;53067;48.114;11.694;2022-07-23T01:45:10;24.60;50.40
16503;DHT22;53067;48.114;11.694;2022-07-23T01:47:38;24.40;49.80
16503;DHT22;53067;48.114;11.694;2022-07-23T01:50:11;24.30;49.70
16503;DHT22;53067;48.114;11.694;2022-07-23T01:52:39;24.20;48.70
16503;DHT22;53067;48.114;11.694;2022-07-23T01:57:55;24.20;48.90
16503;DHT22;53067;48.114;11.694;2022-07-23T02:00:22;24.10;49.30
16503;DHT22;53067;48.114;11.694;2022-07-23T02:02:50;24.00;49.80
16503;DHT22;53067;48.114;11.694;2022-07-23T02:05:17;24.00;50.50
16503;DHT22;53067;48.114;11.694;2022-07-23T02:07:45;23.90;51.10
16503;DHT22;53067;48.114;11.694;2022-07-23T02:10:12;23.90;51.20
16503;DHT22;53067;48.114;11.694;2022-07-23T02:12:40;23.90;51.40
16503;DHT22;53067;48.114;11.694;2022-07-23T02:15:08;23.90;51.20
16503;DHT22;53067;48.114;11.694;2022-07-23T02:17:36;23.90;50.90
16503;DHT22;53067;48.114;11.694;2022-07-23T02:20:07;23.90;50.90
16503;DHT22;53067;48.114;11.694;2022-07-23T02:22:35;23.90;51.40
16503;DHT22;53067;48.114;11.694;2022-07-23T02:25:05;23.90;51.80
16503;DHT22;53067;48.114;11.694;2022-07-23T02:27:34;24.00;52.20
16503;DHT22;53067;48.114;11.694;2022-07-23T02:30:02;24.00;53.00
16503;DHT22;53067;48.114;11.694;2022-07-23T02:32:29;24.00;54.10
16503;DHT22;53067;48.114;11.694;2022-07-23T02:34:57;23.90;55.30
16503;DHT22;53067;48.114;11.694;2022-07-23T02:37:24;23.90;55.50
16503;DHT22;53067;48.114;11.694;2022-07-23T02:39:53;23.70;56.00
16503;DHT22;53067;48.114;11.694;2022-07-23T02:42:21;23.70;55.80
16503;DHT22;53067;48.114;11.694;2022-07-23T02:44:51;23.70;56.60
16503;DHT22;53067;48.114;11.694;2022-07-23T02:47:18;23.50;57.10
16503;DHT22;53067;48.114;11.694;2022-07-23T02:49:46;23.50;57.60
16503;DHT22;53067;48.114;11.694;2022-07-23T02:52:13;23.50;58.30
16503;DHT22;53067;48.114;11.694;2022-07-23T02:54:41;23.40;58.60
16503;DHT22;53067;48.114;11.694;2022-07-23T02:57:08;23.40;59.00
16503;DHT22;53067;48.114;11.694;2022-07-23T02:59:36;23.30;59.20
16503;DHT22;53067;48.114;11.694;2022-07-23T03:04:43;23.20;59.60
16503;DHT22;53067;48.114;11.694;2022-07-23T03:07:11;23.10;60.40
16503;DHT22;53067;48.114;11.694;2022-07-23T03:09:39;22.90;60.80
16503;DHT22;53067;48.114;11.694;2022-07-23T03:12:07;22.80;61.10
16503;DHT22;53067;48.114;11.694;2022-07-23T03:14:34;22.80;62.40
16503;DHT22;53067;48.114;11.694;2022-07-23T03:17:02;22.70;63.30
16503;DHT22;53067;48.114;11.694;2022-07-23T03:19:30;22.80;63.50
16503;DHT22;53067;48.114;11.694;2022-07-23T03:21:57;22.60;63.70
16503;DHT22;53067;48.114;11.694;2022-07-23T03:24:24;22.60;64.70
16503;DHT22;53067;48.114;11.694;2022-07-23T03:26:54;22.50;65.50
16503;DHT22;53067;48.114;11.694;2022-07-23T03:29:21;22.40;65.50
16503;DHT22;53067;48.114;11.694;2022-07-23T03:31:49;22.50;65.90
16503;DHT22;53067;48.114;11.694;2022-07-23T03:34:16;22.50;66.00
16503;DHT22;53067;48.114;11.694;2022-07-23T03:36:45;22.50;66.10
16503;DHT22;53067;48.114;11.694;2022-07-23T03:39:12;22.40;65.60
16503;DHT22;53067;48.114;11.694;2022-07-23T03:41:40;22.30;65.90
16503;DHT22;53067;48.114;11.694;2022-07-23T03:44:07;22.30;65.70
16503;DHT22;53067;48.114;11.694;2022-07-23T03:46:35;22.30;65.70
16503;DHT22;53067;48.114;11.694;2022-07-23T03:49:02;22.30;66.20
16503;DHT22;53067;48.114;11.694;2022-07-23T03:51:30;22.40;66.90
16503;DHT22;53067;48.114;11.694;2022-07-23T03:53:57;22.30;67.10
16503;DHT22;53067;48.114;11.694;2022-07-23T03:56:25;22.30;67.30
16503;DHT22;53067;48.114;11.694;2022-07-23T03:58:52;22.40;66.30
16503;DHT22;53067;48.114;11.694;2022-07-23T04:01:20;22.40;65.90
16503;DHT22;53067;48.114;11.694;2022-07-23T04:03:48;22.40;65.50
16503;DHT22;53067;48.114;11.694;2022-07-23T04:06:15;22.40;64.00
16503;DHT22;53067;48.114;11.694;2022-07-23T04:08:43;22.40;63.70
16503;DHT22;53067;48.114;11.694;2022-07-23T04:11:10;22.30;62.80
16503;DHT22;53067;48.114;11.694;2022-07-23T04:13:38;22.20;63.60
16503;DHT22;53067;48.114;11.694;2022-07-23T04:16:06;22.20;64.50
16503;DHT22;53067;48.114;11.694;2022-07-23T04:18:34;22.30;65.10
16503;DHT22;53067;48.114;11.694;2022-07-23T04:21:01;22.40;65.50
16503;DHT22;53067;48.114;11.694;2022-07-23T04:23:29;22.40;65.50
16503;DHT22;53067;48.114;11.694;2022-07-23T04:25:56;22.40;65.50
16503;DHT22;53067;48.114;11.694;2022-07-23T04:28:24;22.40;65.80
16503;DHT22;53067;48.114;11.694;2022-07-23T04:30:51;22.40;65.70
16503;DHT22;53067;48.114;11.694;2022-07-23T04:33:19;22.50;65.60
16503;DHT22;53067;48.114;11.694;2022-07-23T04:35:47;22.50;65.60
16503;DHT22;53067;48.114;11.694;2022-07-23T04:38:14;22.40;65.20
16503;DHT22;53067;48.114;11.694;2022-07-23T04:40:42;22.40;65.50
16503;DHT22;53067;48.114;11.694;2022-07-23T04:43:09;22.50;66.50
16503;DHT22;53067;48.114;11.694;2022-07-23T04:45:37;22.50;66.50
16503;DHT22;53067;48.114;11.694;2022-07-23T04:48:04;22.50;66.40
16503;DHT22;53067;48.114;11.694;2022-07-23T04:50:32;22.40;66.70
16503;DHT22;53067;48.114;11.694;2022-07-23T04:53:00;22.50;67.00
16503;DHT22;53067;48.114;11.694;2022-07-23T04:55:28;22.40;66.40
16503;DHT22;53067;48.114;11.694;2022-07-23T04:57:55;22.40;65.10
16503;DHT22;53067;48.114;11.694;2022-07-23T05:00:23;22.40;65.10
16503;DHT22;53067;48.114;11.694;2022-07-23T05:02:50;22.50;65.40
16503;DHT22;53067;48.114;11.694;2022-07-23T05:05:24;22.40;65.60
16503;DHT22;53067;48.114;11.694;2022-07-23T05:07:52;22.50;65.50
16503;DHT22;53067;48.114;11.694;2022-07-23T05:10:19;22.50;65.60
16503;DHT22;53067;48.114;11.694;2022-07-23T05:12:47;22.50;66.00
16503;DHT22;53067;48.114;11.694;2022-07-23T05:15:15;22.60;65.90
16503;DHT22;53067;48.114;11.694;2022-07-23T05:17:42;22.60;65.50
16503;DHT22;53067;48.114;11.694;2022-07-23T05:20:10;22.60;65.20
16503;DHT22;53067;48.114;11.694;2022-07-23T05:22:38;22.70;65.70
16503;DHT22;53067;48.114;11.694;2022-07-23T05:25:06;22.70;65.20
16503;DHT22;53067;48.114;11.694;2022-07-23T05:27:34;22.70;64.80
16503;DHT22;53067;48.114;11.694;2022-07-23T05:30:02;22.80;64.40
16503;DHT22;53067;48.114;11.694;2022-07-23T05:32:31;22.80;64.60
16503;DHT22;53067;48.114;11.694;2022-07-23T05:34:59;22.80;63.20
16503;DHT22;53067;48.114;11.694;2022-07-23T05:37:27;22.80;61.70
16503;DHT22;53067;48.114;11.694;2022-07-23T05:39:54;22.90;62.30
16503;DHT22;53067;48.114;11.694;2022-07-23T05:42:22;22.90;62.10
16503;DHT22;53067;48.114;11.694;2022-07-23T05:44:49;23.00;61.80
16503;DHT22;53067;48.114;11.694;2022-07-23T05:47:17;23.00;61.50
16503;DHT22;53067;48.114;11.694;2022-07-23T05:49:44;23.00;61.30
16503;DHT22;53067;48.114;11.694;2022-07-23T05:52:12;23.10;61.00
16503;DHT22;53067;48.114;11.694;2022-07-23T05:54:39;23.10;61.10
16503;DHT22;53067;48.114;11.694;2022-07-23T05:57:08;23.10;60.90
16503;DHT22;53067;48.114;11.694;2022-07-23T05:59:35;23.10;61.00
16503;DHT22;53067;48.114;11.694;2022-07-23T06:02:03;23.10;60.60
16503;DHT22;53067;48.114;11.694;2022-07-23T06:04:30;23.20;60.90
16503;DHT22;53067;48.114;11.694;2022-07-23T06:06:58;23.20;61.00
16503;DHT22;53067;48.114;11.694;2022-07-23T06:09:25;23.20;61.30
16503;DHT22;53067;48.114;11.694;2022-07-23T06:11:53;23.30;61.10
16503;DHT22;53067;48.114;11.694;2022-07-23T06:14:20;23.20;60.00
16503;DHT22;53067;48.114;11.694;2022-07-23T06:16:48;23.20;59.80
16503;DHT22;53067;48.114;11.694;2022-07-23T06:19:16;23.10;59.90
16503;DHT22;53067;48.114;11.694;2022-07-23T06:21:43;23.10;60.70
16503;DHT22;53067;48.114;11.694;2022-07-23T06:24:11;23.20;60.20
16503;DHT22;53067;48.114;11.694;2022-07-23T06:26:40;23.10;60.90
16503;DHT22;53067;48.114;11.694;2022-07-23T06:29:08;23.20;61.30
16503;DHT22;53067;48.114;11.694;2022-07-23T06:31:35;23.20;62.30
16503;DHT22;53067;48.114;11.694;2022-07-23T06:34:03;23.20;63.10
16503;DHT22;53067;48.114;11.694;2022-07-23T06:36:30;23.20;62.80
16503;DHT22;53067;48.114;11.694;2022-07-23T06:38:58;23.30;63.70
16503;DHT22;53067;48.114;11.694;2022-07-23T06:41:25;23.30;64.70
16503;DHT22;53067;48.114;11.694;2022-07-23T06:43:53;23.30;65.00
16503;DHT22;53067;48.114;11.694;2022-07-23T06:46:20;23.30;64.50
16503;DHT22;53067;48.114;11.694;2022-07-23T06:48:48;23.20;64.40
16503;DHT22;53067;48.114;11.694;2022-07-23T06:51:15;23.10;64.20
16503;DHT22;53067;48.114;11.694;2022-07-23T06:53:43;23.10;63.80
16503;DHT22;53067;48.114;11.694;2022-07-23T06:56:11;23.10;63.40
16503;DHT22;53067;48.114;11.694;2022-07-23T06:58:38;23.10;62.80
16503;DHT22;53067;48.114;11.694;2022-07-23T07:01:06;23.10;63.20
16503;DHT22;53067;48.114;11.694;2022-07-23T07:03:33;23.10;63.00
16503;DHT22;53067;48.114;11.694;2022-07-23T07:06:01;23.10;62.90
16503;DHT22;53067;48.114;11.694;2022-07-23T07:08:29;23.20;62.40
16503;DHT22;53067;48.114;11.694;2022-07-23T07:10:56;23.30;62.60
16503;DHT22;53067;48.114;11.694;2022-07-23T07:13:24;23.30;62.00
16503;DHT22;53067;48.114;11.694;2022-07-23T07:15:51;23.30;61.30
16503;DHT22;53067;48.114;11.694;2022-07-23T07:18:19;23.40;61.60
16503;DHT22;53067;48.114;11.694;2022-07-23T07:20:46;23.50;61.30
16503;DHT22;53067;48.114;11.694;2022-07-23T07:23:14;23.60;61.20
16503;DHT22;53067;48.114;11.694;2022-07-23T07:25:42;23.60;60.70
16503;DHT22;53067;48.114;11.694;2022-07-23T07:28:28;23.60;61.80
16503;DHT22;53067;48.114;11.694;2022-07-23T07:30:56;23.70;61.00
16503;DHT22;53067;48.114;11.694;2022-07-23T07:33:24;23.80;60.10
16503;DHT22;53067;48.114;11.694;2022-07-23T07:35:51;23.80;60.40
16503;DHT22;53067;48.114;11.694;2022-07-23T07:38:19;23.90;59.30
16503;DHT22;53067;48.114;11.694;2022-07-23T07:40:46;23.90;59.20
16503;DHT22;53067;48.114;11.694;2022-07-23T07:43:14;24.00;59.60
16503;DHT22;53067;48.114;11.694;2022-07-23T07:45:41;24.00;59.90
16503;DHT22;53067;48.114;11.694;2022-07-23T07:48:09;24.10;59.90
16503;DHT22;53067;48.114;11.694;2022-07-23T07:50:36;24.10;59.30
16503;DHT22;53067;48.114;11.694;2022-07-23T07:53:04;24.00;59.30
16503;DHT22;53067;48.114;11.694;2022-07-23T07:55:32;23.90;59.10
16503;DHT22;53067;48.114;11.694;2022-07-23T07:57:59;23.90;59.20
16503;DHT22;53067;48.114;11.694;2022-07-23T08:00:27;23.80;59.50
16503;DHT22;53067;48.114;11.694;2022-07-23T08:02:55;23.80;59.80
16503;DHT22;53067;48.114;11.694;2022-07-23T08:05:28;23.80;59.70
16503;DHT22;53067;48.114;11.694;2022-07-23T08:07:57;23.80;59.80
16503;DHT22;53067;48.114;11.694;2022-07-23T08:10:26;23.80;59.90
16503;DHT22;53067;48.114;11.694;2022-07-23T08:12:55;23.80;59.70
16503;DHT22;53067;48.114;11.694;2022-07-23T08:15:28;23.80;59.70
16503;DHT22;53067;48.114;11.694;2022-07-23T08:17:57;23.80;59.70
16503;DHT22;53067;48.114;11.694;2022-07-23T08:20:25;23.80;60.00
16503;DHT22;53067;48.114;11.694;2022-07-23T08:23:05;23.90;60.10
16503;DHT22;53067;48.114;11.694;2022-07-23T08:25:41;23.90;60.00
16503;DHT22;53067;48.114;11.694;2022-07-23T08:28:08;24.00;59.80
16503;DHT22;53067;48.114;11.694;2022-07-23T08:30:36;24.10;59.60
16503;DHT22;53067;48.114;11.694;2022-07-23T08:33:07;24.10;59.10
16503;DHT22;53067;48.114;11.694;2022-07-23T08:35:39;24.10;59.60
16503;DHT22;53067;48.114;11.694;2022-07-23T08:38:08;24.10;59.30
16503;DHT22;53067;48.114;11.694;2022-07-23T08:40:39;24.10;59.30
16503;DHT22;53067;48.114;11.694;2022-07-23T08:43:09;24.10;59.60
16503;DHT22;53067;48.114;11.694;2022-07-23T08:45:40;24.10;59.30
16503;DHT22;53067;48.114;11.694;2022-07-23T08:48:14;24.10;59.10
16503;DHT22;53067;48.114;11.694;2022-07-23T08:53:28;24.10;59.10
16503;DHT22;53067;48.114;11.694;2022-07-23T08:55:58;24.10;58.80
16503;DHT22;53067;48.114;11.694;2022-07-23T08:58:28;24.20;58.80
16503;DHT22;53067;48.114;11.694;2022-07-23T09:00:55;24.30;58.90
16503;DHT22;53067;48.114;11.694;2022-07-23T09:03:25;24.40;58.30
16503;DHT22;53067;48.114;11.694;2022-07-23T09:05:54;24.50;58.20
16503;DHT22;53067;48.114;11.694;2022-07-23T09:08:25;24.60;57.80
16503;DHT22;53067;48.114;11.694;2022-07-23T09:10:59;24.60;57.70
16503;DHT22;53067;48.114;11.694;2022-07-23T09:13:52;24.60;57.40
16503;DHT22;53067;48.114;11.694;2022-07-23T09:16:25;24.60;57.50
16503;DHT22;53067;48.114;11.694;2022-07-23T09:18:56;24.60;57.40
16503;DHT22;53067;48.114;11.694;2022-07-23T09:21:28;24.70;57.20
16503;DHT22;53067;48.114;11.694;2022-07-23T09:24:04;24.70;57.00
16503;DHT22;53067;48.114;11.694;2022-07-23T09:29:22;24.70;57.10
16503;DHT22;53067;48.114;11.694;2022-07-23T09:34:25;25.00;57.50
16503;DHT22;53067;48.114;11.694;2022-07-23T09:36:57;25.00;56.80
16503;DHT22;53067;48.114;11.694;2022-07-23T09:39:30;25.00;56.80
16503;DHT22;53067;48.114;11.694;2022-07-23T09:42:21;25.10;56.30
16503;DHT22;53067;48.114;11.694;2022-07-23T09:44:27;25.10;56.30
16503;DHT22;53067;48.114;11.694;2022-07-23T09:46:59;25.20;55.70
16503;DHT22;53067;48.114;11.694;2022-07-23T09:49:27;25.30;56.00
16503;DHT22;53067;48.114;11.694;2022-07-23T09:51:57;25.50;55.20
16503;DHT22;53067;48.114;11.694;2022-07-23T09:54:36;25.60;54.90
16503;DHT22;53067;48.114;11.694;2022-07-23T09:57:06;25.70;54.90
16503;DHT22;53067;48.114;11.694;2022-07-23T10:02:24;25.90;52.90
16503;DHT22;53067;48.114;11.694;2022-07-23T10:04:54;26.00;53.20
16503;DHT22;53067;48.114;11.694;2022-07-23T10:10:10;26.40;52.70
16503;DHT22;53067;48.114;11.694;2022-07-23T10:12:38;26.60;51.00
16503;DHT22;53067;48.114;11.694;2022-07-23T10:15:13;26.80;50.50
16503;DHT22;53067;48.114;11.694;2022-07-23T10:17:41;27.00;49.50
16503;DHT22;53067;48.114;11.694;2022-07-23T10:20:09;27.10;49.20
16503;DHT22;53067;48.114;11.694;2022-07-23T10:22:42;27.30;49.60
16503;DHT22;53067;48.114;11.694;2022-07-23T10:25:41;27.50;49.00
16503;DHT22;53067;48.114;11.694;2022-07-23T10:31:20;27.90;46.80
16503;DHT22;53067;48.114;11.694;2022-07-23T10:34:07;28.00;46.20
16503;DHT22;53067;48.114;11.694;2022-07-23T10:36:53;28.10;45.00
16503;DHT22;53067;48.114;11.694;2022-07-23T10:39:29;28.10;43.90
16503;DHT22;53067;48.114;11.694;2022-07-23T10:42:12;28.20;43.70
16503;DHT22;53067;48.114;11.694;2022-07-23T10:44:42;28.30;44.30
16503;DHT22;53067;48.114;11.694;2022-07-23T10:47:11;28.40;44.00
16503;DHT22;53067;48.114;11.694;2022-07-23T10:53:12;28.50;44.00
16503;DHT22;53067;48.114;11.694;2022-07-23T10:55:48;28.30;43.80
16503;DHT22;53067;48.114;11.694;2022-07-23T10:58:17;28.30;44.40
16503;DHT22;53067;48.114;11.694;2022-07-23T11:00:46;28.30;44.10
16503;DHT22;53067;48.114;11.694;2022-07-23T11:03:27;28.20;44.10
16503;DHT22;53067;48.114;11.694;2022-07-23T11:05:55;28.10;43.90
16503;DHT22;53067;48.114;11.694;2022-07-23T11:08:23;28.00;44.00
16503;DHT22;53067;48.114;11.694;2022-07-23T11:11:07;28.00;44.40
16503;DHT22;53067;48.114;11.694;2022-07-23T11:13:26;28.10;43.30
16503;DHT22;53067;48.114;11.694;2022-07-23T11:16:12;28.00;43.20
16503;DHT22;53067;48.114;11.694;2022-07-23T11:24:08;27.70;43.20
16503;DHT22;53067;48.114;11.694;2022-07-23T11:32:22;27.40;45.00
16503;DHT22;53067;48.114;11.694;2022-07-23T11:34:49;27.40;45.10
16503;DHT22;53067;48.114;11.694;2022-07-23T11:37:36;27.40;45.30
16503;DHT22;53067;48.114;11.694;2022-07-23T11:40:09;27.40;45.00
16503;DHT22;53067;48.114;11.694;2022-07-23T11:42:38;27.30;45.10
16503;DHT22;53067;48.114;11.694;2022-07-23T11:45:08;27.20;45.40
16503;DHT22;53067;48.114;11.694;2022-07-23T11:47:36;27.20;45.60
16503;DHT22;53067;48.114;11.694;2022-07-23T11:50:05;27.20;45.60
16503;DHT22;53067;48.114;11.694;2022-07-23T11:52:33;27.20;45.40
16503;DHT22;53067;48.114;11.694;2022-07-23T11:55:06;27.10;45.70
16503;DHT22;53067;48.114;11.694;2022-07-23T11:57:36;27.10;46.40
16503;DHT22;53067;48.114;11.694;2022-07-23T12:02:45;27.10;46.70
16503;DHT22;53067;48.114;11.694;2022-07-23T12:05:08;27.00;46.70
16503;DHT22;53067;48.114;11.694;2022-07-23T12:07:38;27.00;46.90
16503;DHT22;53067;48.114;11.694;2022-07-23T12:10:20;26.90;47.00
16503;DHT22;53067;48.114;11.694;2022-07-23T12:13:04;26.90;47.10
16503;DHT22;53067;48.114;11.694;2022-07-23T12:15:33;26.90;47.50
16503;DHT22;53067;48.114;11.694;2022-07-23T12:18:01;26.90;47.60
16503;DHT22;53067;48.114;11.694;2022-07-23T12:20:31;26.80;47.60
16503;DHT22;53067;48.114;11.694;2022-07-23T12:23:02;26.90;47.70
16503;DHT22;53067;48.114;11.694;2022-07-23T12:25:37;26.90;47.70
16503;DHT22;53067;48.114;11.694;2022-07-23T12:28:28;26.90;47.60
16503;DHT22;53067;48.114;11.694;2022-07-23T12:30:46;26.90;47.60
16503;DHT22;53067;48.114;11.694;2022-07-23T12:33:32;26.80;47.90
16503;DHT22;53067;48.114;11.694;2022-07-23T12:36:03;26.80;48.10
16503;DHT22;53067;48.114;11.694;2022-07-23T12:38:47;26.90;48.20
16503;DHT22;53067;48.114;11.694;2022-07-23T12:41:10;26.90;47.90
16503;DHT22;53067;48.114;11.694;2022-07-23T12:43:40;26.80;47.90
16503;DHT22;53067;48.114;11.694;2022-07-23T12:46:18;26.70;48.00
16503;DHT22;53067;48.114;11.694;2022-07-23T12:48:51;26.70;48.30
16503;DHT22;53067;48.114;11.694;2022-07-23T12:51:23;26.60;48.40
16503;DHT22;53067;48.114;11.694;2022-07-23T12:54:06;26.70;48.40
16503;DHT22;53067;48.114;11.694;2022-07-23T12:56:44;26.70;48.50
16503;DHT22;53067;48.114;11.694;2022-07-23T12:59:09;26.70;48.40
16503;DHT22;53067;48.114;11.694;2022-07-23T13:01:41;26.60;48.30
16503;DHT22;53067;48.114;11.694;2022-07-23T13:04:18;26.60;48.50
16503;DHT22;53067;48.114;11.694;2022-07-23T13:06:48;26.60;48.60
16503;DHT22;53067;48.114;11.694;2022-07-23T13:09:24;26.60;48.80
16503;DHT22;53067;48.114;11.694;2022-07-23T13:11:53;26.60;48.70
16503;DHT22;53067;48.114;11.694;2022-07-23T13:14:22;26.60;48.70
16503;DHT22;53067;48.114;11.694;2022-07-23T13:16:52;26.60;48.50
16503;DHT22;53067;48.114;11.694;2022-07-23T13:22:08;26.60;48.30
16503;DHT22;53067;48.114;11.694;2022-07-23T13:24:35;26.60;48.40
16503;DHT22;53067;48.114;11.694;2022-07-23T13:27:03;26.70;48.40
16503;DHT22;53067;48.114;11.694;2022-07-23T13:29:32;26.80;48.20
16503;DHT22;53067;48.114;11.694;2022-07-23T13:31:59;26.80;48.20
16503;DHT22;53067;48.114;11.694;2022-07-23T13:34:27;26.80;48.30
16503;DHT22;53067;48.114;11.694;2022-07-23T13:36:54;26.70;49.00
16503;DHT22;53067;48.114;11.694;2022-07-23T13:39:22;26.70;48.50
16503;DHT22;53067;48.114;11.694;2022-07-23T13:41:49;26.70;48.90
16503;DHT22;53067;48.114;11.694;2022-07-23T13:44:18;26.70;49.00
16503;DHT22;53067;48.114;11.694;2022-07-23T13:46:45;26.60;49.20
16503;DHT22;53067;48.114;11.694;2022-07-23T13:49:13;26.60;49.40
16503;DHT22;53067;48.114;11.694;2022-07-23T13:51:40;26.60;49.50
16503;DHT22;53067;48.114;11.694;2022-07-23T13:54:08;26.60;49.90
16503;DHT22;53067;48.114;11.694;2022-07-23T13:56:36;26.60;49.50
16503;DHT22;53067;48.114;11.694;2022-07-23T13:59:04;26.50;49.50
16503;DHT22;53067;48.114;11.694;2022-07-23T14:01:51;26.50;49.60
16503;DHT22;53067;48.114;11.694;2022-07-23T14:04:18;26.50;49.60
16503;DHT22;53067;48.114;11.694;2022-07-23T14:06:46;26.50;49.50
16503;DHT22;53067;48.114;11.694;2022-07-23T14:09:13;26.50;49.40
16503;DHT22;53067;48.114;11.694;2022-07-23T14:11:41;26.50;49.20
16503;DHT22;53067;48.114;11.694;2022-07-23T14:14:08;26.40;49.20
16503;DHT22;53067;48.114;11.694;2022-07-23T14:16:36;26.40;49.30
16503;DHT22;53067;48.114;11.694;2022-07-23T14:19:03;26.30;49.40
16503;DHT22;53067;48.114;11.694;2022-07-23T14:21:31;26.30;49.90
16503;DHT22;53067;48.114;11.694;2022-07-23T14:23:58;26.40;50.70
16503;DHT22;53067;48.114;11.694;2022-07-23T14:26:26;26.30;51.30
16503;DHT22;53067;48.114;11.694;2022-07-23T14:28:54;26.30;52.50
16503;DHT22;53067;48.114;11.694;2022-07-23T14:31:21;26.30;51.50
16503;DHT22;53067;48.114;11.694;2022-07-23T14:33:49;26.30;51.30
16503;DHT22;53067;48.114;11.694;2022-07-23T14:36:17;26.30;51.80
16503;DHT22;53067;48.114;11.694;2022-07-23T14:38:44;26.30;50.90
16503;DHT22;53067;48.114;11.694;2022-07-23T14:41:12;26.30;50.80
16503;DHT22;53067;48.114;11.694;2022-07-23T14:43:39;26.30;51.40
16503;DHT22;53067;48.114;11.694;2022-07-23T14:46:07;26.30;50.80
16503;DHT22;53067;48.114;11.694;2022-07-23T14:48:36;26.30;50.80
16503;DHT22;53067;48.114;11.694;2022-07-23T14:51:04;26.30;50.60
16503;DHT22;53067;48.114;11.694;2022-07-23T14:53:32;26.30;50.60
16503;DHT22;53067;48.114;11.694;2022-07-23T14:55:59;26.40;50.60
16503;DHT22;53067;48.114;11.694;2022-07-23T14:58:27;26.40;50.40
16503;DHT22;53067;48.114;11.694;2022-07-23T15:00:56;26.40;50.40
16503;DHT22;53067;48.114;11.694;2022-07-23T15:03:23;26.50;50.80
16503;DHT22;53067;48.114;11.694;2022-07-23T15:05:51;26.60;50.40
16503;DHT22;53067;48.114;11.694;2022-07-23T15:08:18;26.70;50.20
16503;DHT22;53067;48.114;11.694;2022-07-23T15:10:46;26.80;49.90
16503;DHT22;53067;48.114;11.694;2022-07-23T15:13:13;26.90;49.80
16503;DHT22;53067;48.114;11.694;2022-07-23T15:15:41;27.10;49.50
16503;DHT22;53067;48.114;11.694;2022-07-23T15:18:10;27.10;49.30
16503;DHT22;53067;48.114;11.694;2022-07-23T15:20:37;27.20;49.10
16503;DHT22;53067;48.114;11.694;2022-07-23T15:23:05;27.20;49.00
16503;DHT22;53067;48.114;11.694;2022-07-23T15:25:33;27.30;48.90
16503;DHT22;53067;48.114;11.694;2022-07-23T15:28:02;27.40;49.10
16503;DHT22;53067;48.114;11.694;2022-07-23T15:30:29;27.40;48.80
16503;DHT22;53067;48.114;11.694;2022-07-23T15:32:57;27.40;48.90
16503;DHT22;53067;48.114;11.694;2022-07-23T15:35:24;27.40;49.40
16503;DHT22;53067;48.114;11.694;2022-07-23T15:37:52;27.50;48.60
16503;DHT22;53067;48.114;11.694;2022-07-23T15:40:20;27.50;49.10
16503;DHT22;53067;48.114;11.694;2022-07-23T15:42:47;27.60;49.00
16503;DHT22;53067;48.114;11.694;2022-07-23T15:45:15;27.60;48.70
16503;DHT22;53067;48.114;11.694;2022-07-23T15:47:43;27.70;48.40
16503;DHT22;53067;48.114;11.694;2022-07-23T15:50:10;27.70;48.70
16503;DHT22;53067;48.114;11.694;2022-07-23T15:52:38;27.80;48.40
16503;DHT22;53067;48.114;11.694;2022-07-23T15:55:11;27.90;48.20
16503;DHT22;53067;48.114;11.694;2022-07-23T15:57:39;27.90;48.30
16503;DHT22;53067;48.114;11.694;2022-07-23T16:00:26;27.90;48.20
16503;DHT22;53067;48.114;11.694;2022-07-23T16:02:53;27.90;48.40
16503;DHT22;53067;48.114;11.694;2022-07-23T16:05:21;28.00;48.10
16503;DHT22;53067;48.114;11.694;2022-07-23T16:07:48;28.00;48.00
16503;DHT22;53067;48.114;11.694;2022-07-23T16:10:16;28.00;48.00